sensor_id;sensor_type;location;lat;lon;timestamp;P1;durP1;ratioP1;P2;durP2;ratioP2
39276;SDS011;63149;48.086;-1.606;2023-03-11T06:00:17;10.10;;;5.32;;
39276;SDS011;63149;48.086;-1.606;2023-03-11T06:02:45;9.82;;;5.55;;
39276;SDS011;63149;48.086;-1.606;2023-03-11T06:05:12;7.75;;;4.78;;
39276;SDS011;63149;48.086;-1.606;2023-03-11T06:07:39;11.77;;;6.15;;
39276;SDS011;63149;48.086;-1.606;2023-03-11T06:10:06;11.88;;;5.18;;
39276;SDS011;63149;48.086;-1.606;2023-03-11T06:12:34;11.32;;;6.63;;
39276;SDS011;63149;48.086;-1.606;2023-03-11T06:15:02;12.68;;;5.53;;
39276;SDS011;63149;48.086;-1.606;2023-03-11T06:17:32;9.23;;;5.72;;
39276;SDS011;63149;48.086;-1.606;2023-03-11T06:19:58;11.48;;;6.15;;
39276;SDS011;63149;48.086;-1.606;2023-03-11T06:22:25;9.90;;;5.47;;
39276;SDS011;63149;48.086;-1.606;2023-03-11T06:24:52;10.45;;;5.90;;
39276;SDS011;63149;48.086;-1.606;2023-03-11T06:27:19;11.13;;;6.53;;
39276;SDS011;63149;48.086;-1.606;2023-03-11T06:29:50;10.15;;;5.88;;
39276;SDS011;63149;48.086;-1.606;2023-03-11T06:32:17;11.98;;;6.38;;
39276;SDS011;63149;48.086;-1.606;2023-03-11T06:34:48;12.52;;;6.10;;
39276;SDS011;63149;48.086;-1.606;2023-03-11T06:37:15;13.07;;;7.30;;
39276;SDS011;63149;48.086;-1.606;2023-03-11T06:39:42;12.18;;;6.70;;
39276;SDS011;63149;48.086;-1.606;2023-03-11T06:42:09;14.70;;;6.78;;
39276;SDS011;63149;48.086;-1.606;2023-03-11T06:44:36;13.90;;;7.03;;
39276;SDS011;63149;48.086;-1.606;2023-03-11T06:47:04;14.18;;;7.25;;
39276;SDS011;63149;48.086;-1.606;2023-03-11T06:49:31;11.80;;;6.55;;
39276;SDS011;63149;48.086;-1.606;2023-03-11T06:51:59;15.43;;;7.35;;
39276;SDS011;63149;48.086;-1.606;2023-03-11T06:54:26;13.70;;;6.95;;
39276;SDS011;63149;48.086;-1.606;2023-03-11T06:56:53;13.55;;;7.32;;
39276;SDS011;63149;48.086;-1.606;2023-03-11T06:59:20;13.30;;;6.82;;
39276;SDS011;63149;48.086;-1.606;2023-03-11T07:01:47;14.18;;;7.13;;
39276;SDS011;63149;48.086;-1.606;2023-03-11T07:04:14;12.27;;;6.55;;
39276;SDS011;63149;48.086;-1.606;2023-03-11T07:06:41;14.45;;;7.38;;
39276;SDS011;63149;48.086;-1.606;2023-03-11T07:09:09;11.20;;;6.47;;
39276;SDS011;63149;48.086;-1.606;2023-03-11T07:11:36;12.15;;;6.38;;
39276;SDS011;63149;48.086;-1.606;2023-03-11T07:14:04;11.40;;;6.35;;
39276;SDS011;63149;48.086;-1.606;2023-03-11T07:16:31;12.05;;;6.57;;
39276;SDS011;63149;48.086;-1.606;2023-03-11T07:18:58;15.95;;;6.57;;
39276;SDS011;63149;48.086;-1.606;2023-03-11T07:21:27;12.88;;;6.35;;
39276;SDS011;63149;48.086;-1.606;2023-03-11T07:23:56;11.77;;;5.93;;
39276;SDS011;63149;48.086;-1.606;2023-03-11T07:26:26;11.23;;;6.18;;
39276;SDS011;63149;48.086;-1.606;2023-03-11T07:28:54;11.60;;;5.72;;
39276;SDS011;63149;48.086;-1.606;2023-03-11T07:31:22;12.73;;;6.10;;
39276;SDS011;63149;48.086;-1.606;2023-03-11T07:33:50;12.35;;;6.43;;
39276;SDS011;63149;48.086;-1.606;2023-03-11T07:36:18;13.93;;;6.30;;
39276;SDS011;63149;48.086;-1.606;2023-03-11T07:38:46;10.63;;;5.45;;
39276;SDS011;63149;48.086;-1.606;2023-03-11T07:41:13;12.88;;;6.53;;
39276;SDS011;63149;48.086;-1.606;2023-03-11T07:43:42;11.35;;;6.28;;
39276;SDS011;63149;48.086;-1.606;2023-03-11T07:46:10;9.73;;;5.25;;
39276;SDS011;63149;48.086;-1.606;2023-03-11T07:48:40;10.27;;;5.97;;
39276;SDS011;63149;48.086;-1.606;2023-03-11T07:51:09;10.25;;;5.38;;
39276;SDS011;63149;48.086;-1.606;2023-03-11T07:53:37;9.88;;;5.78;;
39276;SDS011;63149;48.086;-1.606;2023-03-11T07:56:05;13.98;;;6.20;;
39276;SDS011;63149;48.086;-1.606;2023-03-11T07:58:33;11.70;;;5.97;;
39276;SDS011;63149;48.086;-1.606;2023-03-11T08:01:03;10.20;;;5.65;;
39276;SDS011;63149;48.086;-1.606;2023-03-11T08:03:32;9.32;;;5.50;;
39276;SDS011;63149;48.086;-1.606;2023-03-11T08:05:59;10.13;;;5.68;;
39276;SDS011;63149;48.086;-1.606;2023-03-11T08:08:26;10.95;;;6.05;;
39276;SDS011;63149;48.086;-1.606;2023-03-11T08:10:53;10.75;;;5.43;;
39276;SDS011;63149;48.086;-1.606;2023-03-11T08:13:21;8.75;;;5.03;;
39276;SDS011;63149;48.086;-1.606;2023-03-11T08:15:47;8.85;;;4.82;;
39276;SDS011;63149;48.086;-1.606;2023-03-11T08:18:16;9.68;;;5.38;;
39276;SDS011;63149;48.086;-1.606;2023-03-11T08:20:43;7.53;;;4.22;;
39276;SDS011;63149;48.086;-1.606;2023-03-11T08:23:10;9.13;;;5.35;;
39276;SDS011;63149;48.086;-1.606;2023-03-11T08:25:37;7.75;;;4.80;;
39276;SDS011;63149;48.086;-1.606;2023-03-11T08:28:04;21.60;;;8.50;;
39276;SDS011;63149;48.086;-1.606;2023-03-11T08:30:32;13.20;;;8.10;;
39276;SDS011;63149;48.086;-1.606;2023-03-11T08:32:59;9.70;;;5.18;;
39276;SDS011;63149;48.086;-1.606;2023-03-11T08:35:27;11.18;;;4.80;;
39276;SDS011;63149;48.086;-1.606;2023-03-11T08:37:54;11.25;;;5.30;;
39276;SDS011;63149;48.086;-1.606;2023-03-11T08:40:21;12.90;;;5.45;;
39276;SDS011;63149;48.086;-1.606;2023-03-11T08:42:48;9.18;;;5.07;;
39276;SDS011;63149;48.086;-1.606;2023-03-11T08:45:15;7.90;;;4.00;;
39276;SDS011;63149;48.086;-1.606;2023-03-11T08:47:42;6.25;;;3.75;;
39276;SDS011;63149;48.086;-1.606;2023-03-11T08:50:11;13.13;;;5.05;;
39276;SDS011;63149;48.086;-1.606;2023-03-11T08:52:41;8.15;;;4.00;;
39276;SDS011;63149;48.086;-1.606;2023-03-11T08:55:10;7.07;;;3.72;;
39276;SDS011;63149;48.086;-1.606;2023-03-11T08:57:38;9.23;;;4.05;;
39276;SDS011;63149;48.086;-1.606;2023-03-11T09:00:07;7.05;;;3.72;;
39276;SDS011;63149;48.086;-1.606;2023-03-11T09:02:35;6.82;;;3.90;;
39276;SDS011;63149;48.086;-1.606;2023-03-11T09:05:02;6.10;;;3.80;;
39276;SDS011;63149;48.086;-1.606;2023-03-11T09:07:29;7.15;;;3.70;;
39276;SDS011;63149;48.086;-1.606;2023-03-11T09:09:58;11.25;;;5.18;;
39276;SDS011;63149;48.086;-1.606;2023-03-11T09:12:24;9.35;;;4.97;;
39276;SDS011;63149;48.086;-1.606;2023-03-11T09:14:52;13.05;;;6.47;;
39276;SDS011;63149;48.086;-1.606;2023-03-11T09:17:20;8.23;;;5.07;;
39276;SDS011;63149;48.086;-1.606;2023-03-11T09:19:47;6.40;;;3.83;;
39276;SDS011;63149;48.086;-1.606;2023-03-11T09:22:14;6.97;;;4.40;;
39276;SDS011;63149;48.086;-1.606;2023-03-11T09:24:41;6.38;;;3.78;;
39276;SDS011;63149;48.086;-1.606;2023-03-11T09:27:09;6.20;;;3.90;;
39276;SDS011;63149;48.086;-1.606;2023-03-11T09:29:37;7.65;;;4.07;;
39276;SDS011;63149;48.086;-1.606;2023-03-11T09:32:04;6.50;;;3.83;;
39276;SDS011;63149;48.086;-1.606;2023-03-11T09:34:31;10.98;;;6.13;;
39276;SDS011;63149;48.086;-1.606;2023-03-11T09:36:59;8.88;;;4.88;;
39276;SDS011;63149;48.086;-1.606;2023-03-11T09:39:26;6.50;;;4.65;;
39276;SDS011;63149;48.086;-1.606;2023-03-11T09:41:54;10.02;;;5.13;;
39276;SDS011;63149;48.086;-1.606;2023-03-11T09:44:25;7.65;;;4.22;;
39276;SDS011;63149;48.086;-1.606;2023-03-11T09:47:14;9.48;;;5.72;;
39276;SDS011;63149;48.086;-1.606;2023-03-11T09:49:59;8.40;;;4.53;;
39276;SDS011;63149;48.086;-1.606;2023-03-11T09:52:39;6.88;;;4.50;;
39276;SDS011;63149;48.086;-1.606;2023-03-11T09:55:20;9.05;;;4.85;;
39276;SDS011;63149;48.086;-1.606;2023-03-11T09:57:55;8.85;;;4.53;;
39276;SDS011;63149;48.086;-1.606;2023-03-11T10:00:28;10.20;;;5.25;;
39276;SDS011;63149;48.086;-1.606;2023-03-11T10:02:55;6.70;;;4.75;;
39276;SDS011;63149;48.086;-1.606;2023-03-11T10:05:25;7.57;;;4.47;;
39276;SDS011;63149;48.086;-1.606;2023-03-11T10:07:57;16.10;;;6.53;;
39276;SDS011;63149;48.086;-1.606;2023-03-11T10:10:28;7.18;;;4.80;;
39276;SDS011;63149;48.086;-1.606;2023-03-11T10:13:05;8.60;;;4.95;;
39276;SDS011;63149;48.086;-1.606;2023-03-11T10:15:41;10.27;;;5.20;;
39276;SDS011;63149;48.086;-1.606;2023-03-11T10:18:17;7.50;;;4.85;;
39276;SDS011;63149;48.086;-1.606;2023-03-11T10:20:57;7.32;;;4.85;;
39276;SDS011;63149;48.086;-1.606;2023-03-11T10:23:29;6.95;;;4.35;;
39276;SDS011;63149;48.086;-1.606;2023-03-11T10:26:05;8.85;;;4.45;;
39276;SDS011;63149;48.086;-1.606;2023-03-11T10:28:38;5.50;;;3.95;;
39276;SDS011;63149;48.086;-1.606;2023-03-11T10:31:19;6.05;;;3.60;;
39276;SDS011;63149;48.086;-1.606;2023-03-11T10:33:49;6.25;;;3.80;;
39276;SDS011;63149;48.086;-1.606;2023-03-11T10:36:20;8.02;;;4.30;;
39276;SDS011;63149;48.086;-1.606;2023-03-11T10:38:51;6.00;;;3.97;;
39276;SDS011;63149;48.086;-1.606;2023-03-11T10:41:21;6.75;;;3.90;;
39276;SDS011;63149;48.086;-1.606;2023-03-11T10:43:55;6.53;;;4.38;;
39276;SDS011;63149;48.086;-1.606;2023-03-11T10:46:29;6.00;;;3.90;;
39276;SDS011;63149;48.086;-1.606;2023-03-11T10:48:56;7.63;;;3.97;;
39276;SDS011;63149;48.086;-1.606;2023-03-11T10:51:23;7.35;;;4.00;;
39276;SDS011;63149;48.086;-1.606;2023-03-11T10:53:53;7.13;;;3.70;;
39276;SDS011;63149;48.086;-1.606;2023-03-11T10:56:25;9.55;;;3.92;;
39276;SDS011;63149;48.086;-1.606;2023-03-11T10:58:54;5.80;;;3.08;;
39276;SDS011;63149;48.086;-1.606;2023-03-11T11:01:22;5.15;;;3.45;;
39276;SDS011;63149;48.086;-1.606;2023-03-11T11:03:52;6.45;;;3.33;;
39276;SDS011;63149;48.086;-1.606;2023-03-11T11:06:22;4.97;;;3.35;;
39276;SDS011;63149;48.086;-1.606;2023-03-11T11:09:04;4.90;;;3.30;;
39276;SDS011;63149;48.086;-1.606;2023-03-11T11:11:38;3.92;;;2.80;;
39276;SDS011;63149;48.086;-1.606;2023-03-11T11:14:05;4.97;;;3.28;;
39276;SDS011;63149;48.086;-1.606;2023-03-11T11:16:33;4.30;;;3.22;;
39276;SDS011;63149;48.086;-1.606;2023-03-11T11:19:02;4.25;;;2.85;;
39276;SDS011;63149;48.086;-1.606;2023-03-11T11:21:34;4.80;;;2.80;;
39276;SDS011;63149;48.086;-1.606;2023-03-11T11:24:12;3.53;;;2.40;;
39276;SDS011;63149;48.086;-1.606;2023-03-11T11:29:29;4.60;;;3.20;;
39276;SDS011;63149;48.086;-1.606;2023-03-11T11:32:09;4.10;;;3.22;;
39276;SDS011;63149;48.086;-1.606;2023-03-11T11:34:45;4.32;;;3.03;;
39276;SDS011;63149;48.086;-1.606;2023-03-11T11:37:20;2.78;;;2.35;;
39276;SDS011;63149;48.086;-1.606;2023-03-11T11:39:49;3.67;;;2.60;;
39276;SDS011;63149;48.086;-1.606;2023-03-11T11:42:18;2.92;;;2.45;;
39276;SDS011;63149;48.086;-1.606;2023-03-11T11:44:46;4.03;;;3.05;;
39276;SDS011;63149;48.086;-1.606;2023-03-11T11:47:16;4.65;;;2.45;;
39276;SDS011;63149;48.086;-1.606;2023-03-11T11:49:49;6.43;;;3.33;;
39276;SDS011;63149;48.086;-1.606;2023-03-11T11:52:21;5.53;;;2.45;;
39276;SDS011;63149;48.086;-1.606;2023-03-11T11:54:51;2.97;;;2.45;;
39276;SDS011;63149;48.086;-1.606;2023-03-11T11:57:25;5.25;;;2.78;;
39276;SDS011;63149;48.086;-1.606;2023-03-11T11:59:52;3.75;;;2.65;;
39276;SDS011;63149;48.086;-1.606;2023-03-11T12:02:23;4.18;;;2.67;;
39276;SDS011;63149;48.086;-1.606;2023-03-11T12:05:07;3.55;;;2.90;;
39276;SDS011;63149;48.086;-1.606;2023-03-11T12:07:41;4.57;;;3.20;;
39276;SDS011;63149;48.086;-1.606;2023-03-11T12:10:25;4.95;;;3.03;;
39276;SDS011;63149;48.086;-1.606;2023-03-11T12:13:11;4.50;;;3.80;;
39276;SDS011;63149;48.086;-1.606;2023-03-11T12:15:56;4.68;;;3.28;;
39276;SDS011;63149;48.086;-1.606;2023-03-11T12:18:31;3.72;;;2.70;;
39276;SDS011;63149;48.086;-1.606;2023-03-11T12:21:05;5.78;;;3.35;;
39276;SDS011;63149;48.086;-1.606;2023-03-11T12:23:49;4.65;;;2.70;;
39276;SDS011;63149;48.086;-1.606;2023-03-11T12:26:23;3.95;;;3.17;;
39276;SDS011;63149;48.086;-1.606;2023-03-11T12:28:53;4.85;;;3.33;;
39276;SDS011;63149;48.086;-1.606;2023-03-11T12:31:22;3.85;;;3.40;;
39276;SDS011;63149;48.086;-1.606;2023-03-11T12:33:54;4.60;;;3.47;;
39276;SDS011;63149;48.086;-1.606;2023-03-11T12:36:27;6.22;;;4.07;;
39276;SDS011;63149;48.086;-1.606;2023-03-11T12:38:56;5.10;;;4.55;;
39276;SDS011;63149;48.086;-1.606;2023-03-11T12:41:28;6.93;;;4.07;;
39276;SDS011;63149;48.086;-1.606;2023-03-11T12:44:01;6.15;;;4.57;;
39276;SDS011;63149;48.086;-1.606;2023-03-11T12:49:27;9.93;;;5.70;;
39276;SDS011;63149;48.086;-1.606;2023-03-11T12:52:15;8.75;;;5.22;;
39276;SDS011;63149;48.086;-1.606;2023-03-11T12:54:45;11.68;;;5.43;;
39276;SDS011;63149;48.086;-1.606;2023-03-11T12:57:26;12.43;;;7.28;;
39276;SDS011;63149;48.086;-1.606;2023-03-11T13:03:08;9.48;;;6.13;;
39276;SDS011;63149;48.086;-1.606;2023-03-11T13:05:59;10.18;;;6.88;;
39276;SDS011;63149;48.086;-1.606;2023-03-11T13:08:43;12.57;;;6.80;;
39276;SDS011;63149;48.086;-1.606;2023-03-11T13:14:09;14.82;;;7.63;;
39276;SDS011;63149;48.086;-1.606;2023-03-11T13:16:46;13.20;;;7.75;;
39276;SDS011;63149;48.086;-1.606;2023-03-11T13:25:28;17.52;;;8.40;;
39276;SDS011;63149;48.086;-1.606;2023-03-11T13:28:00;15.98;;;9.15;;
39276;SDS011;63149;48.086;-1.606;2023-03-11T13:30:40;15.63;;;9.63;;
39276;SDS011;63149;48.086;-1.606;2023-03-11T13:33:14;16.20;;;9.27;;
39276;SDS011;63149;48.086;-1.606;2023-03-11T13:35:59;16.48;;;9.98;;
39276;SDS011;63149;48.086;-1.606;2023-03-11T13:41:41;14.75;;;9.02;;
39276;SDS011;63149;48.086;-1.606;2023-03-11T13:44:11;16.58;;;9.95;;
39276;SDS011;63149;48.086;-1.606;2023-03-11T13:46:46;20.85;;;10.25;;
39276;SDS011;63149;48.086;-1.606;2023-03-11T13:49:19;20.92;;;10.75;;
39276;SDS011;63149;48.086;-1.606;2023-03-11T13:51:52;19.70;;;10.70;;
39276;SDS011;63149;48.086;-1.606;2023-03-11T13:54:32;16.27;;;10.02;;
39276;SDS011;63149;48.086;-1.606;2023-03-11T13:57:04;21.23;;;11.27;;
39276;SDS011;63149;48.086;-1.606;2023-03-11T13:59:40;17.25;;;10.73;;
39276;SDS011;63149;48.086;-1.606;2023-03-11T14:02:13;20.10;;;11.25;;
39276;SDS011;63149;48.086;-1.606;2023-03-11T14:04:46;17.33;;;10.40;;
39276;SDS011;63149;48.086;-1.606;2023-03-11T14:07:18;19.70;;;11.68;;
39276;SDS011;63149;48.086;-1.606;2023-03-11T14:09:49;17.73;;;10.93;;
39276;SDS011;63149;48.086;-1.606;2023-03-11T14:12:17;17.50;;;10.32;;
39276;SDS011;63149;48.086;-1.606;2023-03-11T14:14:45;18.00;;;10.60;;
39276;SDS011;63149;48.086;-1.606;2023-03-11T14:17:18;22.85;;;11.48;;
39276;SDS011;63149;48.086;-1.606;2023-03-11T14:20:02;17.13;;;10.45;;
39276;SDS011;63149;48.086;-1.606;2023-03-11T14:22:38;15.82;;;10.10;;
39276;SDS011;63149;48.086;-1.606;2023-03-11T14:25:09;16.38;;;11.00;;
39276;SDS011;63149;48.086;-1.606;2023-03-11T14:27:46;20.40;;;10.60;;
39276;SDS011;63149;48.086;-1.606;2023-03-11T14:30:19;14.93;;;10.23;;
39276;SDS011;63149;48.086;-1.606;2023-03-11T14:32:54;17.75;;;10.40;;
39276;SDS011;63149;48.086;-1.606;2023-03-11T14:35:25;19.17;;;10.70;;
39276;SDS011;63149;48.086;-1.606;2023-03-11T14:37:53;16.60;;;10.05;;
39276;SDS011;63149;48.086;-1.606;2023-03-11T14:40:21;15.38;;;9.95;;
39276;SDS011;63149;48.086;-1.606;2023-03-11T14:42:51;18.90;;;9.93;;
39276;SDS011;63149;48.086;-1.606;2023-03-11T14:45:22;15.77;;;9.50;;
39276;SDS011;63149;48.086;-1.606;2023-03-11T14:47:52;16.42;;;9.80;;
39276;SDS011;63149;48.086;-1.606;2023-03-11T14:50:23;16.73;;;9.40;;
39276;SDS011;63149;48.086;-1.606;2023-03-11T14:52:53;15.95;;;9.80;;
39276;SDS011;63149;48.086;-1.606;2023-03-11T14:55:25;15.48;;;8.80;;
39276;SDS011;63149;48.086;-1.606;2023-03-11T14:57:56;19.30;;;9.27;;
39276;SDS011;63149;48.086;-1.606;2023-03-11T15:05:43;12.10;;;8.07;;
39276;SDS011;63149;48.086;-1.606;2023-03-11T15:08:14;11.20;;;5.80;;
39276;SDS011;63149;48.086;-1.606;2023-03-11T15:11:03;13.38;;;6.68;;
39276;SDS011;63149;48.086;-1.606;2023-03-11T15:13:34;19.98;;;7.07;;
39276;SDS011;63149;48.086;-1.606;2023-03-11T15:16:03;10.90;;;6.20;;
39276;SDS011;63149;48.086;-1.606;2023-03-11T15:18:32;14.15;;;6.03;;
39276;SDS011;63149;48.086;-1.606;2023-03-11T15:21:03;10.75;;;5.72;;
39276;SDS011;63149;48.086;-1.606;2023-03-11T15:23:32;10.85;;;5.80;;
39276;SDS011;63149;48.086;-1.606;2023-03-11T15:26:00;13.85;;;5.07;;
39276;SDS011;63149;48.086;-1.606;2023-03-11T15:28:30;7.43;;;3.63;;
39276;SDS011;63149;48.086;-1.606;2023-03-11T15:33:42;10.43;;;3.10;;
39276;SDS011;63149;48.086;-1.606;2023-03-11T15:36:28;8.45;;;3.15;;
39276;SDS011;63149;48.086;-1.606;2023-03-11T15:39:10;9.82;;;4.03;;
39276;SDS011;63149;48.086;-1.606;2023-03-11T15:41:40;8.88;;;3.25;;
39276;SDS011;63149;48.086;-1.606;2023-03-11T15:44:16;8.13;;;3.53;;
39276;SDS011;63149;48.086;-1.606;2023-03-11T15:46:50;12.55;;;6.47;;
39276;SDS011;63149;48.086;-1.606;2023-03-11T15:49:18;12.60;;;6.00;;
39276;SDS011;63149;48.086;-1.606;2023-03-11T15:51:45;11.55;;;7.00;;
39276;SDS011;63149;48.086;-1.606;2023-03-11T15:54:12;13.00;;;7.40;;
39276;SDS011;63149;48.086;-1.606;2023-03-11T15:56:39;15.63;;;7.00;;
39276;SDS011;63149;48.086;-1.606;2023-03-11T15:59:08;14.52;;;6.65;;
39276;SDS011;63149;48.086;-1.606;2023-03-11T16:01:39;14.10;;;6.82;;
39276;SDS011;63149;48.086;-1.606;2023-03-11T16:04:09;19.88;;;7.78;;
39276;SDS011;63149;48.086;-1.606;2023-03-11T16:06:38;12.35;;;7.75;;
39276;SDS011;63149;48.086;-1.606;2023-03-11T16:09:05;12.40;;;7.70;;
39276;SDS011;63149;48.086;-1.606;2023-03-11T16:11:32;18.38;;;9.55;;
39276;SDS011;63149;48.086;-1.606;2023-03-11T16:14:00;15.43;;;8.98;;
39276;SDS011;63149;48.086;-1.606;2023-03-11T16:16:28;17.90;;;8.98;;
39276;SDS011;63149;48.086;-1.606;2023-03-11T16:18:55;17.77;;;9.13;;
39276;SDS011;63149;48.086;-1.606;2023-03-11T16:21:25;27.02;;;12.98;;
39276;SDS011;63149;48.086;-1.606;2023-03-11T16:24:00;13.50;;;6.88;;
39276;SDS011;63149;48.086;-1.606;2023-03-11T16:26:27;14.23;;;7.75;;
39276;SDS011;63149;48.086;-1.606;2023-03-11T16:28:55;20.30;;;10.52;;
39276;SDS011;63149;48.086;-1.606;2023-03-11T16:31:22;19.75;;;8.32;;
39276;SDS011;63149;48.086;-1.606;2023-03-11T16:33:49;14.15;;;7.43;;
39276;SDS011;63149;48.086;-1.606;2023-03-11T16:36:16;16.17;;;5.65;;
39276;SDS011;63149;48.086;-1.606;2023-03-11T16:38:45;14.52;;;6.03;;
39276;SDS011;63149;48.086;-1.606;2023-03-11T16:41:13;11.15;;;4.30;;
39276;SDS011;63149;48.086;-1.606;2023-03-11T16:43:41;16.58;;;6.57;;
39276;SDS011;63149;48.086;-1.606;2023-03-11T16:46:08;12.25;;;5.22;;
39276;SDS011;63149;48.086;-1.606;2023-03-11T16:48:35;12.27;;;5.35;;
39276;SDS011;63149;48.086;-1.606;2023-03-11T16:51:02;12.13;;;4.72;;
39276;SDS011;63149;48.086;-1.606;2023-03-11T16:53:29;10.25;;;4.57;;
39276;SDS011;63149;48.086;-1.606;2023-03-11T16:55:57;12.30;;;4.20;;
39276;SDS011;63149;48.086;-1.606;2023-03-11T16:58:24;13.52;;;3.90;;
39276;SDS011;63149;48.086;-1.606;2023-03-11T17:00:51;18.38;;;4.22;;
39276;SDS011;63149;48.086;-1.606;2023-03-11T17:03:18;16.25;;;4.60;;
39276;SDS011;63149;48.086;-1.606;2023-03-11T17:05:45;18.15;;;4.30;;
39276;SDS011;63149;48.086;-1.606;2023-03-11T17:08:12;13.02;;;3.28;;
39276;SDS011;63149;48.086;-1.606;2023-03-11T17:10:42;11.88;;;3.70;;
39276;SDS011;63149;48.086;-1.606;2023-03-11T17:13:12;20.75;;;3.25;;
39276;SDS011;63149;48.086;-1.606;2023-03-11T17:15:39;14.38;;;3.28;;
39276;SDS011;63149;48.086;-1.606;2023-03-11T17:18:08;18.05;;;3.60;;
39276;SDS011;63149;48.086;-1.606;2023-03-11T17:20:37;14.82;;;3.30;;
39276;SDS011;63149;48.086;-1.606;2023-03-11T17:23:04;12.80;;;3.17;;
39276;SDS011;63149;48.086;-1.606;2023-03-11T17:25:31;15.15;;;5.35;;
39276;SDS011;63149;48.086;-1.606;2023-03-11T17:27:58;29.05;;;11.88;;
39276;SDS011;63149;48.086;-1.606;2023-03-11T17:30:26;29.85;;;14.90;;
39276;SDS011;63149;48.086;-1.606;2023-03-11T17:32:53;27.65;;;12.38;;
39276;SDS011;63149;48.086;-1.606;2023-03-11T17:35:20;24.08;;;11.13;;
39276;SDS011;63149;48.086;-1.606;2023-03-11T17:37:47;19.27;;;11.25;;
39276;SDS011;63149;48.086;-1.606;2023-03-11T17:40:14;26.20;;;11.75;;
39276;SDS011;63149;48.086;-1.606;2023-03-11T17:42:41;25.88;;;11.90;;
39276;SDS011;63149;48.086;-1.606;2023-03-11T17:45:09;17.92;;;7.80;;
39276;SDS011;63149;48.086;-1.606;2023-03-11T17:47:37;19.85;;;5.60;;
39276;SDS011;63149;48.086;-1.606;2023-03-11T17:50:04;11.85;;;4.90;;
39276;SDS011;63149;48.086;-1.606;2023-03-11T17:52:32;8.90;;;3.80;;
39276;SDS011;63149;48.086;-1.606;2023-03-11T17:54:59;11.30;;;3.83;;
39276;SDS011;63149;48.086;-1.606;2023-03-11T17:57:26;10.23;;;3.65;;
39276;SDS011;63149;48.086;-1.606;2023-03-11T17:59:53;13.93;;;3.70;;
39276;SDS011;63149;48.086;-1.606;2023-03-11T18:02:20;14.13;;;3.88;;
39276;SDS011;63149;48.086;-1.606;2023-03-11T18:04:51;20.00;;;7.80;;
39276;SDS011;63149;48.086;-1.606;2023-03-11T18:07:18;20.38;;;5.30;;
39276;SDS011;63149;48.086;-1.606;2023-03-11T18:09:48;19.90;;;3.78;;
39276;SDS011;63149;48.086;-1.606;2023-03-11T18:12:16;14.82;;;3.88;;
39276;SDS011;63149;48.086;-1.606;2023-03-11T18:14:44;16.27;;;3.88;;
39276;SDS011;63149;48.086;-1.606;2023-03-11T18:17:10;23.65;;;5.32;;
39276;SDS011;63149;48.086;-1.606;2023-03-11T18:19:37;16.75;;;5.28;;
39276;SDS011;63149;48.086;-1.606;2023-03-11T18:22:06;15.25;;;4.22;;
39276;SDS011;63149;48.086;-1.606;2023-03-11T18:24:33;21.60;;;4.22;;
39276;SDS011;63149;48.086;-1.606;2023-03-11T18:27:00;18.92;;;4.00;;
39276;SDS011;63149;48.086;-1.606;2023-03-11T18:29:26;23.95;;;5.53;;
39276;SDS011;63149;48.086;-1.606;2023-03-11T18:31:53;26.90;;;5.35;;
39276;SDS011;63149;48.086;-1.606;2023-03-11T18:34:21;21.60;;;4.57;;
39276;SDS011;63149;48.086;-1.606;2023-03-11T18:36:48;21.08;;;5.63;;
39276;SDS011;63149;48.086;-1.606;2023-03-11T18:39:16;24.85;;;5.28;;
39276;SDS011;63149;48.086;-1.606;2023-03-11T18:41:43;19.42;;;3.92;;
39276;SDS011;63149;48.086;-1.606;2023-03-11T18:44:10;16.42;;;4.25;;
39276;SDS011;63149;48.086;-1.606;2023-03-11T18:46:37;21.55;;;4.07;;
39276;SDS011;63149;48.086;-1.606;2023-03-11T18:49:06;26.38;;;4.93;;
39276;SDS011;63149;48.086;-1.606;2023-03-11T18:51:33;18.55;;;4.30;;
39276;SDS011;63149;48.086;-1.606;2023-03-11T18:54:00;18.52;;;4.72;;
39276;SDS011;63149;48.086;-1.606;2023-03-11T18:56:29;19.83;;;4.82;;
39276;SDS011;63149;48.086;-1.606;2023-03-11T18:58:56;15.30;;;4.20;;
39276;SDS011;63149;48.086;-1.606;2023-03-11T19:01:23;19.77;;;3.50;;
39276;SDS011;63149;48.086;-1.606;2023-03-11T19:03:51;22.85;;;4.28;;
39276;SDS011;63149;48.086;-1.606;2023-03-11T19:06:20;29.13;;;5.78;;
39276;SDS011;63149;48.086;-1.606;2023-03-11T19:08:48;29.92;;;4.70;;
39276;SDS011;63149;48.086;-1.606;2023-03-11T19:11:16;25.73;;;5.32;;
39276;SDS011;63149;48.086;-1.606;2023-03-11T19:13:47;24.45;;;6.03;;
39276;SDS011;63149;48.086;-1.606;2023-03-11T19:16:14;35.00;;;9.70;;
39276;SDS011;63149;48.086;-1.606;2023-03-11T19:18:42;53.97;;;15.55;;
39276;SDS011;63149;48.086;-1.606;2023-03-11T19:21:10;72.75;;;23.85;;
39276;SDS011;63149;48.086;-1.606;2023-03-11T19:23:38;49.05;;;16.30;;
39276;SDS011;63149;48.086;-1.606;2023-03-11T19:26:05;39.15;;;13.15;;
39276;SDS011;63149;48.086;-1.606;2023-03-11T19:28:33;46.30;;;12.32;;
39276;SDS011;63149;48.086;-1.606;2023-03-11T19:31:01;31.90;;;8.25;;
39276;SDS011;63149;48.086;-1.606;2023-03-11T19:33:29;25.55;;;7.68;;
39276;SDS011;63149;48.086;-1.606;2023-03-11T19:35:57;29.20;;;8.48;;
39276;SDS011;63149;48.086;-1.606;2023-03-11T19:38:25;28.88;;;6.70;;
39276;SDS011;63149;48.086;-1.606;2023-03-11T19:40:52;37.15;;;9.02;;
39276;SDS011;63149;48.086;-1.606;2023-03-11T19:43:25;35.38;;;9.30;;
39276;SDS011;63149;48.086;-1.606;2023-03-11T19:45:52;32.80;;;10.05;;
39276;SDS011;63149;48.086;-1.606;2023-03-11T19:48:20;28.27;;;9.38;;
39276;SDS011;63149;48.086;-1.606;2023-03-11T19:50:48;36.33;;;9.20;;
39276;SDS011;63149;48.086;-1.606;2023-03-11T19:53:16;32.03;;;8.48;;
39276;SDS011;63149;48.086;-1.606;2023-03-11T19:55:43;33.17;;;7.95;;
39276;SDS011;63149;48.086;-1.606;2023-03-11T19:58:10;34.13;;;8.38;;
39276;SDS011;63149;48.086;-1.606;2023-03-11T20:00:38;30.80;;;7.68;;
39276;SDS011;63149;48.086;-1.606;2023-03-11T20:03:05;30.75;;;9.18;;
39276;SDS011;63149;48.086;-1.606;2023-03-11T20:05:34;38.67;;;8.77;;
39276;SDS011;63149;48.086;-1.606;2023-03-11T20:08:01;26.23;;;8.13;;
39276;SDS011;63149;48.086;-1.606;2023-03-11T20:10:30;31.05;;;7.22;;
39276;SDS011;63149;48.086;-1.606;2023-03-11T20:12:57;22.00;;;6.80;;
39276;SDS011;63149;48.086;-1.606;2023-03-11T20:15:26;28.00;;;7.05;;
39276;SDS011;63149;48.086;-1.606;2023-03-11T20:17:53;23.60;;;7.93;;
39276;SDS011;63149;48.086;-1.606;2023-03-11T20:20:20;26.13;;;8.35;;
39276;SDS011;63149;48.086;-1.606;2023-03-11T20:22:48;34.97;;;8.07;;
39276;SDS011;63149;48.086;-1.606;2023-03-11T20:25:15;29.52;;;7.78;;
39276;SDS011;63149;48.086;-1.606;2023-03-11T20:27:42;30.10;;;8.48;;
39276;SDS011;63149;48.086;-1.606;2023-03-11T20:30:10;30.73;;;8.15;;
39276;SDS011;63149;48.086;-1.606;2023-03-11T20:32:37;26.55;;;7.57;;
39276;SDS011;63149;48.086;-1.606;2023-03-11T20:35:05;27.20;;;6.75;;
39276;SDS011;63149;48.086;-1.606;2023-03-11T20:37:33;31.15;;;8.52;;
39276;SDS011;63149;48.086;-1.606;2023-03-11T20:40:01;31.67;;;10.43;;
39276;SDS011;63149;48.086;-1.606;2023-03-11T20:42:30;35.33;;;11.17;;
39276;SDS011;63149;48.086;-1.606;2023-03-11T20:44:57;34.67;;;7.10;;
39276;SDS011;63149;48.086;-1.606;2023-03-11T20:47:24;39.63;;;9.20;;
39276;SDS011;63149;48.086;-1.606;2023-03-11T20:49:51;41.10;;;8.75;;
39276;SDS011;63149;48.086;-1.606;2023-03-11T20:52:21;39.50;;;8.82;;
39276;SDS011;63149;48.086;-1.606;2023-03-11T20:54:48;40.75;;;8.63;;
39276;SDS011;63149;48.086;-1.606;2023-03-11T20:57:16;50.25;;;8.25;;
39276;SDS011;63149;48.086;-1.606;2023-03-11T20:59:43;64.22;;;11.30;;
39276;SDS011;63149;48.086;-1.606;2023-03-11T21:02:11;56.55;;;9.73;;
39276;SDS011;63149;48.086;-1.606;2023-03-11T21:04:39;63.78;;;10.10;;
39276;SDS011;63149;48.086;-1.606;2023-03-11T21:07:08;70.97;;;11.98;;